Time;durP1;ratioP1;P1;durP2;ratioP2;P2;SDS_P1;SDS_P2;PMS_P1;PMS_P2;Temp;Humidity;BMP_temperature;BMP_pressure;BME280_temperature;BME280_humidity;BME280_pressure;Samples;Min_cycle;Max_cycle;Signal;HPM_P1;HPM_P2
2023/06/25 00:02:03;;;;;;;4.55;2.22;;;18.10;99.90;;;;;;5090260;28;20036;-61
2023/06/25 00:04:29;;;;;;;6.03;2.47;;;18.10;99.90;;;;;;5090175;28;20488;-62
2023/06/25 00:06:55;;;;;;;4.72;2.28;;;18.10;99.90;;;;;;5088417;28;20046;-62
2023/06/25 00:09:21;;;;;;;5.55;2.45;;;18.00;99.90;;;;;;5088817;28;20040;-61
2023/06/25 00:11:47;;;;;;;7.63;2.88;;;18.00;99.90;;;;;;5089042;28;20047;-61
2023/06/25 00:14:13;;;;;;;6.22;2.13;;;17.90;99.90;;;;;;5082424;28;20286;-61
2023/06/25 00:16:38;;;;;;;4.13;2.15;;;18.00;99.90;;;;;;5069733;28;20029;-62
2023/06/25 00:19:04;;;;;;;5.97;2.75;;;17.90;99.90;;;;;;5068363;28;20049;-61
2023/06/25 00:21:30;;;;;;;6.53;2.53;;;17.90;99.90;;;;;;5067784;28;20032;-62
2023/06/25 00:23:56;;;;;;;8.23;2.42;;;17.80;99.90;;;;;;5068245;28;20040;-62
2023/06/25 00:26:22;;;;;;;4.00;1.85;;;17.90;99.90;;;;;;5069767;28;20048;-62
2023/06/25 00:28:48;;;;;;;4.72;2.65;;;17.90;99.90;;;;;;5067567;28;20045;-61
2023/06/25 00:31:13;;;;;;;3.72;1.92;;;17.80;99.90;;;;;;5069494;28;20037;-62
2023/06/25 00:33:42;;;;;;;6.80;2.33;;;17.70;99.90;;;;;;5069473;28;20042;-62
2023/06/25 00:36:08;;;;;;;7.85;2.45;;;17.70;99.90;;;;;;5067494;28;20507;-61
2023/06/25 00:38:38;;;;;;;4.57;2.38;;;17.60;99.90;;;;;;5068359;28;20040;-61
2023/06/25 00:41:09;;;;;;;3.50;2.10;;;17.50;99.90;;;;;;5069477;28;20119;-62
2023/06/25 00:43:36;;;;;;;5.60;2.42;;;17.50;99.90;;;;;;5068924;28;20397;-61
2023/06/25 00:46:02;;;;;;;6.00;2.70;;;17.40;99.90;;;;;;5069383;28;20482;-62
2023/06/25 00:48:28;;;;;;;4.50;1.98;;;17.40;99.90;;;;;;5050607;28;20098;-61
2023/06/25 00:51:00;;;;;;;7.57;2.33;;;17.40;99.90;;;;;;5069451;28;20032;-62
2023/06/25 00:53:33;;;;;;;6.30;2.22;;;17.40;99.90;;;;;;5067359;28;20048;-62
2023/06/25 00:55:58;;;;;;;5.20;2.45;;;17.40;99.90;;;;;;5067354;28;20119;-61
2023/06/25 00:58:24;;;;;;;5.03;2.20;;;17.40;99.90;;;;;;5069191;28;20116;-62
2023/06/25 01:00:54;;;;;;;5.60;2.00;;;17.30;99.90;;;;;;5070228;28;20044;-61
2023/06/25 01:03:30;;;;;;;5.03;2.25;;;17.30;99.90;;;;;;5088753;28;20508;-61
2023/06/25 01:06:18;;;;;;;6.07;2.15;;;17.20;99.90;;;;;;5088060;28;20048;-62
2023/06/25 01:08:49;;;;;;;7.32;2.38;;;17.20;99.90;;;;;;5088100;28;20455;-62
2023/06/25 01:11:16;;;;;;;6.07;2.45;;;17.20;99.90;;;;;;5075348;28;20396;-62
2023/06/25 01:13:41;;;;;;;5.00;2.38;;;17.10;99.90;;;;;;5067974;28;20447;-62
2023/06/25 01:16:07;;;;;;;5.55;2.88;;;17.10;99.90;;;;;;5069111;28;20129;-62
2023/06/25 01:18:33;;;;;;;6.13;2.63;;;17.10;99.90;;;;;;5067212;28;20169;-62
2023/06/25 01:21:00;;;;;;;4.05;2.15;;;17.10;99.90;;;;;;5067706;28;20077;-62
2023/06/25 01:23:28;;;;;;;5.32;2.80;;;17.10;99.90;;;;;;5067701;28;20054;-62
2023/06/25 01:25:53;;;;;;;6.28;3.15;;;17.10;99.90;;;;;;5067898;28;20057;-62
2023/06/25 01:28:20;;;;;;;6.07;3.13;;;17.10;99.90;;;;;;5067525;28;20103;-62
2023/06/25 01:30:51;;;;;;;10.60;2.83;;;17.00;99.90;;;;;;5068511;28;20078;-62
2023/06/25 01:33:19;;;;;;;7.38;3.03;;;17.00;99.90;;;;;;5069012;28;20044;-62
2023/06/25 01:35:45;;;;;;;7.80;3.58;;;17.00;99.90;;;;;;5068883;28;20041;-61
2023/06/25 01:38:11;;;;;;;5.60;2.90;;;17.00;99.90;;;;;;5068213;28;20519;-62
2023/06/25 01:40:37;;;;;;;5.25;2.85;;;17.00;99.90;;;;;;5067740;28;20037;-61
2023/06/25 01:43:03;;;;;;;9.43;3.70;;;16.90;99.90;;;;;;5067512;28;20566;-62
2023/06/25 01:45:29;;;;;;;8.70;3.97;;;16.90;99.90;;;;;;5066804;28;20040;-62
2023/06/25 01:47:55;;;;;;;7.75;3.30;;;16.90;99.90;;;;;;5069064;28;20036;-62
2023/06/25 01:50:20;;;;;;;6.93;2.97;;;16.90;99.90;;;;;;5050964;28;20094;-62
2023/06/25 01:52:46;;;;;;;7.20;3.38;;;16.90;99.90;;;;;;5066786;28;20500;-62
2023/06/25 01:55:12;;;;;;;7.10;2.90;;;16.90;99.90;;;;;;5067362;28;20040;-62
2023/06/25 01:57:38;;;;;;;5.97;3.40;;;16.90;99.90;;;;;;5068805;28;20036;-62
2023/06/25 02:00:07;;;;;;;11.70;3.13;;;16.90;99.90;;;;;;5062733;28;20546;-62
2023/06/25 02:02:32;;;;;;;8.00;3.10;;;16.80;99.90;;;;;;5087876;28;20036;-62
2023/06/25 02:04:58;;;;;;;8.57;3.50;;;16.80;99.90;;;;;;5089180;28;20063;-62
2023/06/25 02:07:24;;;;;;;4.70;3.03;;;16.80;99.90;;;;;;5079266;28;20353;-62
2023/06/25 02:09:50;;;;;;;9.10;3.28;;;16.80;99.90;;;;;;5072061;28;20123;-62
2023/06/25 02:12:16;;;;;;;7.82;2.83;;;16.80;99.90;;;;;;5072010;28;20036;-62
2023/06/25 02:14:41;;;;;;;6.85;3.10;;;16.80;99.90;;;;;;5053911;28;20038;-61
2023/06/25 02:17:07;;;;;;;5.97;3.50;;;16.70;99.90;;;;;;5070995;28;20496;-62
2023/06/25 02:19:33;;;;;;;9.40;3.70;;;16.80;99.90;;;;;;5071508;28;20095;-62
2023/06/25 02:21:59;;;;;;;7.05;3.25;;;16.70;99.90;;;;;;5070947;28;20603;-62
2023/06/25 02:24:25;;;;;;;5.47;3.08;;;16.70;99.90;;;;;;5071846;28;20489;-62
2023/06/25 02:26:51;;;;;;;11.10;3.40;;;16.70;99.90;;;;;;5069834;28;20048;-62
2023/06/25 02:29:17;;;;;;;7.65;3.13;;;16.70;99.90;;;;;;5070537;28;20032;-62
2023/06/25 02:31:42;;;;;;;7.70;3.95;;;16.70;99.90;;;;;;5070458;28;20054;-62
2023/06/25 02:34:09;;;;;;;4.82;2.45;;;16.70;99.90;;;;;;5069827;28;20116;-62
2023/06/25 02:36:35;;;;;;;6.30;3.33;;;16.70;99.90;;;;;;5071735;28;20040;-62
2023/06/25 02:39:00;;;;;;;8.20;2.95;;;16.60;99.90;;;;;;5071560;28;20028;-62
2023/06/25 02:41:26;;;;;;;6.10;2.90;;;16.60;99.90;;;;;;5069743;28;20059;-62
2023/06/25 02:43:52;;;;;;;4.88;2.80;;;16.60;99.90;;;;;;5070596;28;20039;-62
2023/06/25 02:46:18;;;;;;;8.13;3.63;;;16.60;99.90;;;;;;5070379;28;20112;-62
2023/06/25 02:48:44;;;;;;;8.15;3.25;;;16.60;99.90;;;;;;5069698;28;20468;-62
2023/06/25 02:51:10;;;;;;;7.88;3.38;;;16.60;99.90;;;;;;5070428;28;20515;-62
2023/06/25 02:53:36;;;;;;;6.63;2.90;;;16.60;99.90;;;;;;5069882;28;20136;-62
2023/06/25 02:56:02;;;;;;;6.35;3.03;;;16.60;99.90;;;;;;5071138;28;20058;-62
2023/06/25 02:58:28;;;;;;;6.95;3.22;;;16.60;99.90;;;;;;5069946;28;20595;-61
2023/06/25 03:00:54;;;;;;;7.88;2.95;;;16.50;99.90;;;;;;5089834;28;20092;-62
2023/06/25 03:03:20;;;;;;;7.43;3.55;;;16.50;99.90;;;;;;5064112;28;20055;-62
2023/06/25 03:05:46;;;;;;;6.72;2.60;;;16.50;99.90;;;;;;5071153;28;20053;-62
2023/06/25 03:08:12;;;;;;;8.02;3.00;;;16.50;99.90;;;;;;5070809;28;20045;-62
2023/06/25 03:10:38;;;;;;;5.15;2.83;;;16.50;99.90;;;;;;5069547;28;20048;-62
2023/06/25 03:13:05;;;;;;;7.35;2.70;;;16.50;99.90;;;;;;5071190;28;20037;-62
2023/06/25 03:15:30;;;;;;;4.82;2.72;;;16.50;99.90;;;;;;5068662;28;20550;-62
2023/06/25 03:17:57;;;;;;;6.28;3.40;;;16.50;99.90;;;;;;5069912;28;20295;-62
2023/06/25 03:20:22;;;;;;;7.80;3.45;;;16.50;99.90;;;;;;5069890;28;20426;-62
2023/06/25 03:22:49;;;;;;;9.27;3.55;;;16.50;99.90;;;;;;5068986;28;20036;-62
2023/06/25 03:25:15;;;;;;;6.35;3.03;;;16.50;99.90;;;;;;5069422;28;20079;-62
2023/06/25 03:27:41;;;;;;;5.53;2.97;;;16.60;99.90;;;;;;5070793;28;20032;-62
2023/06/25 03:30:07;;;;;;;7.03;3.28;;;16.60;99.90;;;;;;5070176;28;20036;-62
2023/06/25 03:32:33;;;;;;;7.20;2.95;;;16.60;99.90;;;;;;5069669;28;20455;-62
2023/06/25 03:34:59;;;;;;;6.53;3.15;;;16.60;99.90;;;;;;5069550;28;20036;-62
2023/06/25 03:37:26;;;;;;;7.40;3.05;;;16.60;99.90;;;;;;5069900;28;20142;-62
2023/06/25 03:39:51;;;;;;;7.88;3.40;;;16.60;99.90;;;;;;5069301;28;20076;-62
2023/06/25 03:42:17;;;;;;;8.30;3.50;;;16.60;99.90;;;;;;5069067;28;20090;-62
2023/06/25 03:44:51;;;;;;;5.97;3.13;;;16.60;99.90;;;;;;5068555;28;20045;-62
2023/06/25 03:47:17;;;;;;;11.02;3.03;;;16.60;99.90;;;;;;5070211;28;20043;-62
2023/06/25 03:49:43;;;;;;;12.95;3.13;;;16.60;99.90;;;;;;5070217;28;20032;-62
2023/06/25 03:52:09;;;;;;;8.93;3.28;;;16.60;99.90;;;;;;5068333;28;20048;-62
2023/06/25 03:54:35;;;;;;;7.13;3.13;;;16.60;99.90;;;;;;5068891;28;20036;-62
2023/06/25 03:57:01;;;;;;;10.30;3.55;;;16.60;99.90;;;;;;5069163;28;20047;-62
2023/06/25 03:59:28;;;;;;;6.63;3.63;;;16.60;99.90;;;;;;5051496;28;20048;-62
2023/06/25 04:01:53;;;;;;;7.38;2.97;;;16.70;99.90;;;;;;5068730;28;20083;-62
2023/06/25 04:04:19;;;;;;;6.65;2.90;;;16.70;99.90;;;;;;5068565;28;20087;-62
2023/06/25 04:06:45;;;;;;;5.50;3.13;;;16.70;99.90;;;;;;5067983;28;20040;-62
2023/06/25 04:09:11;;;;;;;5.90;2.70;;;16.70;99.90;;;;;;5052280;28;20074;-62
2023/06/25 04:11:37;;;;;;;7.78;3.78;;;16.70;99.90;;;;;;5068035;28;20040;-62
2023/06/25 04:14:02;;;;;;;10.00;3.90;;;16.70;99.90;;;;;;5070073;28;20037;-62
2023/06/25 04:16:29;;;;;;;8.13;3.35;;;16.80;99.90;;;;;;5069810;28;20041;-62
2023/06/25 04:18:55;;;;;;;6.35;3.30;;;16.80;99.90;;;;;;5067934;28;20037;-62
2023/06/25 04:21:20;;;;;;;6.43;3.00;;;16.80;99.90;;;;;;5068419;28;20047;-62
2023/06/25 04:23:46;;;;;;;5.82;3.33;;;16.80;99.90;;;;;;5052039;28;20049;-62
2023/06/25 04:26:12;;;;;;;7.93;3.80;;;16.90;99.90;;;;;;5069072;28;20536;-61
2023/06/25 04:28:38;;;;;;;6.47;3.00;;;16.90;99.90;;;;;;5067554;28;20044;-62
2023/06/25 04:31:04;;;;;;;6.60;3.10;;;17.00;99.90;;;;;;5068243;28;20040;-62
2023/06/25 04:33:30;;;;;;;8.77;3.38;;;17.00;99.90;;;;;;5067561;28;20032;-62
2023/06/25 04:35:56;;;;;;;8.13;3.60;;;17.10;99.90;;;;;;5068199;28;20090;-62
2023/06/25 04:38:22;;;;;;;6.47;3.28;;;17.10;99.90;;;;;;5069624;28;20044;-62
2023/06/25 04:40:47;;;;;;;8.65;3.33;;;17.20;99.90;;;;;;5069085;28;20530;-62
2023/06/25 04:43:13;;;;;;;8.07;3.58;;;17.20;99.90;;;;;;5068407;28;20051;-62
2023/06/25 04:45:39;;;;;;;8.30;3.85;;;17.30;99.90;;;;;;5051650;28;20131;-62
2023/06/25 04:48:05;;;;;;;9.63;3.70;;;17.40;99.90;;;;;;5067391;28;20063;-62
2023/06/25 04:50:31;;;;;;;7.20;3.45;;;17.40;99.90;;;;;;5069444;28;20120;-62
2023/06/25 04:52:57;;;;;;;8.75;3.08;;;17.60;99.90;;;;;;5067974;28;20135;-63
2023/06/25 04:55:23;;;;;;;7.70;3.30;;;17.60;99.90;;;;;;5050500;28;20042;-63
2023/06/25 04:57:49;;;;;;;7.70;2.90;;;17.70;99.90;;;;;;5068059;28;20036;-63
2023/06/25 05:00:15;;;;;;;8.63;2.88;;;17.80;99.90;;;;;;5057680;28;20135;-63
2023/06/25 05:02:41;;;;;;;5.85;3.28;;;17.90;99.90;;;;;;5047403;28;20048;-63
2023/06/25 05:05:07;;;;;;;6.43;2.85;;;18.00;99.90;;;;;;5031212;28;20044;-63
2023/06/25 05:07:33;;;;;;;7.15;3.00;;;18.10;99.90;;;;;;5048627;28;20087;-63
2023/06/25 05:09:59;;;;;;;8.10;3.03;;;18.20;99.90;;;;;;5047785;28;20126;-63
2023/06/25 05:12:25;;;;;;;6.60;2.47;;;18.20;99.90;;;;;;5047919;28;20048;-63
2023/06/25 05:14:50;;;;;;;6.85;3.15;;;18.40;99.90;;;;;;5047488;28;20045;-63
2023/06/25 05:17:16;;;;;;;4.53;2.38;;;18.50;99.90;;;;;;5049009;28;20490;-62
2023/06/25 05:19:42;;;;;;;5.85;2.60;;;18.60;99.90;;;;;;5047601;28;20398;-63
2023/06/25 05:22:08;;;;;;;7.05;3.15;;;18.70;99.90;;;;;;5048584;28;20045;-63
2023/06/25 05:24:34;;;;;;;6.75;2.45;;;18.80;99.90;;;;;;5048872;28;20482;-63
2023/06/25 05:26:59;;;;;;;6.80;3.10;;;18.90;99.90;;;;;;5047549;28;20037;-63
2023/06/25 05:29:25;;;;;;;9.30;3.20;;;19.00;99.90;;;;;;5046988;28;20045;-63
2023/06/25 05:31:55;;;;;;;5.50;2.25;;;19.10;99.90;;;;;;5047529;28;20052;-63
2023/06/25 05:34:22;;;;;;;7.05;3.17;;;19.20;99.90;;;;;;5048823;28;20124;-63
2023/06/25 05:36:48;;;;;;;6.93;3.08;;;19.30;99.90;;;;;;5047203;28;20374;-63
2023/06/25 05:39:13;;;;;;;5.18;2.97;;;19.40;99.90;;;;;;5049572;28;20099;-63
2023/06/25 05:41:40;;;;;;;6.50;3.47;;;19.50;99.90;;;;;;5051741;28;20043;-64
2023/06/25 05:44:06;;;;;;;9.85;2.58;;;19.60;99.90;;;;;;5050934;28;20122;-63
2023/06/25 05:46:32;;;;;;;7.75;3.20;;;19.70;99.90;;;;;;5052569;28;20119;-63
2023/06/25 05:48:58;;;;;;;7.65;3.22;;;19.80;99.90;;;;;;5052473;28;20175;-64
2023/06/25 05:51:24;;;;;;;5.63;2.42;;;19.90;99.90;;;;;;5066313;28;20162;-64
2023/06/25 05:53:50;;;;;;;6.90;3.22;;;20.00;99.90;;;;;;5072195;28;20120;-64
2023/06/25 05:56:16;;;;;;;6.53;3.40;;;20.10;99.90;;;;;;5071041;28;20048;-64
2023/06/25 05:58:43;;;;;;;5.70;3.05;;;20.30;99.90;;;;;;5071900;28;20167;-64
2023/06/25 06:01:08;;;;;;;6.43;3.17;;;20.40;99.90;;;;;;5092546;28;20044;-64
2023/06/25 06:03:34;;;;;;;8.02;3.78;;;20.40;99.90;;;;;;5091816;28;20040;-64
2023/06/25 06:06:01;;;;;;;8.52;3.90;;;20.50;99.90;;;;;;5074720;28;20044;-63
2023/06/25 06:08:26;;;;;;;6.80;3.53;;;20.70;99.90;;;;;;5091196;28;20040;-64
2023/06/25 06:10:54;;;;;;;6.25;3.58;;;20.80;99.90;;;;;;5090604;28;20119;-64
2023/06/25 06:13:20;;;;;;;7.47;3.75;;;20.90;99.90;;;;;;5092490;28;20067;-64
2023/06/25 06:15:46;;;;;;;8.75;4.00;;;21.00;99.90;;;;;;5092435;28;20492;-64
2023/06/25 06:18:11;;;;;;;7.25;3.70;;;21.10;99.90;;;;;;5091471;28;20078;-65
2023/06/25 06:20:37;;;;;;;5.65;3.05;;;21.20;99.90;;;;;;5091095;28;20040;-64
2023/06/25 06:23:03;;;;;;;7.25;4.10;;;21.40;99.90;;;;;;5073962;28;20557;-65
2023/06/25 06:25:29;;;;;;;7.38;3.80;;;21.50;99.90;;;;;;5090272;28;20055;-65
2023/06/25 06:27:55;;;;;;;7.00;4.63;;;21.60;99.90;;;;;;5092041;28;20040;-64
2023/06/25 06:30:21;;;;;;;8.32;3.63;;;21.70;99.90;;;;;;5073840;28;20040;-64
2023/06/25 06:32:48;;;;;;;6.55;4.03;;;21.90;99.90;;;;;;5090207;28;20484;-64
2023/06/25 06:35:13;;;;;;;6.72;3.88;;;22.10;99.90;;;;;;5090973;28;20103;-64
2023/06/25 06:37:39;;;;;;;6.82;3.60;;;22.30;99.90;;;;;;5090670;28;20126;-64
2023/06/25 06:40:07;;;;;;;6.25;3.33;;;22.50;99.90;;;;;;5090354;28;20036;-64
2023/06/25 06:42:34;;;;;;;8.30;3.72;;;22.70;99.90;;;;;;5091832;28;20047;-64
2023/06/25 06:45:00;;;;;;;6.80;3.30;;;22.90;99.90;;;;;;5073850;28;20392;-64
2023/06/25 06:47:26;;;;;;;6.05;3.20;;;23.10;99.90;;;;;;5088462;28;20054;-64
2023/06/25 06:49:52;;;;;;;7.97;4.03;;;23.30;99.90;;;;;;5049858;28;20045;-64
2023/06/25 06:52:23;;;;;;;8.05;3.70;;;23.50;99.90;;;;;;5059954;28;20052;-65
2023/06/25 06:54:49;;;;;;;11.95;3.60;;;23.70;99.90;;;;;;5070923;28;20175;-64
2023/06/25 06:57:15;;;;;;;6.95;3.40;;;23.90;99.90;;;;;;5071385;28;20123;-65
2023/06/25 06:59:40;;;;;;;7.20;3.80;;;24.00;99.90;;;;;;5078885;28;20531;-64
2023/06/25 07:02:06;;;;;;;9.43;4.20;;;24.20;99.90;;;;;;5090159;28;20185;-64
2023/06/25 07:04:32;;;;;;;7.05;3.33;;;24.30;99.90;;;;;;5090149;28;20078;-64
2023/06/25 07:06:58;;;;;;;5.70;3.45;;;24.50;99.90;;;;;;5072540;28;20051;-64
2023/06/25 07:09:25;;;;;;;5.60;3.20;;;24.80;99.90;;;;;;5091251;28;20036;-65
2023/06/25 07:11:52;;;;;;;5.82;3.38;;;25.00;99.90;;;;;;5091236;28;20040;-65
2023/06/25 07:14:18;;;;;;;7.15;3.55;;;25.20;99.90;;;;;;5089369;28;20035;-65
2023/06/25 07:16:44;;;;;;;6.82;3.90;;;25.30;99.90;;;;;;5091214;28;20043;-64
2023/06/25 07:19:10;;;;;;;7.07;3.65;;;25.50;99.90;;;;;;5091073;28;20039;-63
2023/06/25 07:21:37;;;;;;;7.05;3.17;;;25.60;99.90;;;;;;5089541;28;20169;-63
2023/06/25 07:24:03;;;;;;;5.68;3.00;;;25.70;99.90;;;;;;5090045;28;20427;-64
2023/06/25 07:26:28;;;;;;;5.97;3.55;;;25.80;99.90;;;;;;5089726;28;20073;-64
2023/06/25 07:28:55;;;;;;;5.47;3.25;;;25.90;99.90;;;;;;5090471;28;20072;-64
2023/06/25 07:31:21;;;;;;;6.10;3.17;;;26.00;99.90;;;;;;5089922;28;20396;-63
2023/06/25 07:33:46;;;;;;;4.97;2.75;;;26.10;99.90;;;;;;5089601;28;20036;-63
2023/06/25 07:36:12;;;;;;;5.68;2.83;;;26.30;99.90;;;;;;5090214;28;20033;-64
2023/06/25 07:38:38;;;;;;;5.88;2.70;;;26.50;99.90;;;;;;5089540;28;20044;-63
2023/06/25 07:41:04;;;;;;;8.10;2.72;;;26.80;99.90;;;;;;5089628;28;20040;-63
2023/06/25 07:43:30;;;;;;;6.50;2.80;;;26.90;99.90;;;;;;5090300;28;20416;-63
2023/06/25 07:45:56;;;;;;;6.57;3.45;;;27.10;99.90;;;;;;5069247;28;20132;-63
2023/06/25 07:48:21;;;;;;;4.85;2.97;;;27.20;99.90;;;;;;5068959;28;20074;-63
2023/06/25 07:50:47;;;;;;;6.22;3.13;;;27.40;99.90;;;;;;5051785;28;20378;-63
2023/06/25 07:53:13;;;;;;;5.25;2.70;;;27.60;99.90;;;;;;5068654;28;20082;-64
2023/06/25 07:55:40;;;;;;;4.63;2.80;;;27.70;99.90;;;;;;5068529;28;20080;-64
2023/06/25 07:58:07;;;;;;;6.68;2.60;;;27.80;99.90;;;;;;5069986;28;20097;-64
2023/06/25 08:00:34;;;;;;;5.35;2.72;;;27.90;99.50;;;;;;5086110;28;20115;-64
2023/06/25 08:03:00;;;;;;;3.58;2.00;;;28.10;99.40;;;;;;5088429;28;20036;-63
2023/06/25 08:05:26;;;;;;;4.80;2.17;;;28.20;98.30;;;;;;5090198;28;20496;-63
2023/06/25 08:07:52;;;;;;;5.05;2.17;;;28.30;98.40;;;;;;5090203;28;20051;-64
2023/06/25 08:10:18;;;;;;;3.88;2.03;;;28.40;97.80;;;;;;5071839;28;20039;-63
2023/06/25 08:12:44;;;;;;;3.65;1.95;;;28.60;97.00;;;;;;5088819;28;20181;-64
2023/06/25 08:15:10;;;;;;;4.68;2.53;;;28.70;96.90;;;;;;5088826;28;20036;-63
2023/06/25 08:17:36;;;;;;;3.15;1.85;;;28.90;96.80;;;;;;5088465;28;20075;-64
2023/06/25 08:20:02;;;;;;;4.45;2.67;;;29.10;95.70;;;;;;5089982;28;20564;-63
2023/06/25 08:22:28;;;;;;;4.55;2.22;;;29.20;95.60;;;;;;5088668;28;20051;-64
2023/06/25 08:24:55;;;;;;;4.00;2.58;;;29.30;95.30;;;;;;5088057;28;20122;-63
2023/06/25 08:27:21;;;;;;;2.97;1.83;;;29.40;94.90;;;;;;5088724;28;20400;-63
2023/06/25 08:29:47;;;;;;;4.00;2.00;;;29.40;94.30;;;;;;5088625;28;20050;-64
2023/06/25 08:32:12;;;;;;;4.68;2.45;;;29.40;93.50;;;;;;5087924;28;20036;-64
2023/06/25 08:34:39;;;;;;;3.78;1.60;;;29.50;93.20;;;;;;5089773;28;20043;-64
2023/06/25 08:37:05;;;;;;;3.92;2.03;;;29.60;93.10;;;;;;5088478;28;20129;-63
2023/06/25 08:39:31;;;;;;;4.25;1.98;;;29.80;92.70;;;;;;5087858;28;20127;-64
2023/06/25 08:41:58;;;;;;;4.35;2.13;;;29.90;92.60;;;;;;5068832;28;20080;-63
2023/06/25 08:44:23;;;;;;;3.85;2.10;;;30.00;92.30;;;;;;5054359;28;20094;-63
2023/06/25 08:46:51;;;;;;;3.25;1.92;;;30.20;92.00;;;;;;5030801;28;20066;-65
2023/06/25 08:49:19;;;;;;;4.63;1.95;;;30.40;91.90;;;;;;5050647;28;20528;-64
2023/06/25 08:51:45;;;;;;;7.22;2.13;;;30.50;91.60;;;;;;5067302;28;20041;-64
2023/06/25 08:54:11;;;;;;;3.05;1.55;;;30.70;90.50;;;;;;5067698;28;20051;-63
2023/06/25 08:56:37;;;;;;;2.42;1.20;;;30.80;90.00;;;;;;5069341;28;20032;-64
2023/06/25 08:59:03;;;;;;;2.13;1.38;;;30.80;88.10;;;;;;5072916;28;20135;-64
2023/06/25 09:01:29;;;;;;;3.17;1.52;;;30.80;86.10;;;;;;5087993;28;20126;-65
2023/06/25 09:03:55;;;;;;;2.38;1.20;;;30.80;83.70;;;;;;5089267;28;20051;-65
2023/06/25 09:06:21;;;;;;;2.38;1.50;;;30.70;82.10;;;;;;5088872;28;20032;-65
2023/06/25 09:08:48;;;;;;;3.97;1.40;;;30.60;80.90;;;;;;5088464;28;20399;-64
2023/06/25 09:11:14;;;;;;;2.45;1.50;;;30.50;80.90;;;;;;5051074;28;20043;-63
2023/06/25 09:13:40;;;;;;;2.55;1.45;;;30.50;81.20;;;;;;5050114;28;20037;-64
2023/06/25 09:16:10;;;;;;;2.38;1.38;;;30.60;81.70;;;;;;5039605;28;20037;-65
2023/06/25 09:18:37;;;;;;;3.40;1.45;;;30.80;79.80;;;;;;5039324;28;20053;-63
2023/06/25 09:21:07;;;;;;;4.25;1.80;;;30.80;78.40;;;;;;5053437;28;20051;-64
2023/06/25 09:23:35;;;;;;;3.63;1.77;;;30.70;77.90;;;;;;5054491;28;20045;-64
2023/06/25 09:26:09;;;;;;;3.30;1.45;;;30.80;77.40;;;;;;5037683;28;20041;-65
2023/06/25 09:28:47;;;;;;;3.75;1.35;;;31.00;77.40;;;;;;5053665;28;20037;-64
2023/06/25 09:31:16;;;;;;;3.13;1.85;;;31.00;76.30;;;;;;5054247;28;20640;-65
2023/06/25 09:33:52;;;;;;;3.03;1.33;;;31.10;73.10;;;;;;5053803;28;20036;-64
2023/06/25 09:36:18;;;;;;;6.28;1.92;;;31.00;70.40;;;;;;5055641;28;20039;-64
2023/06/25 09:38:47;;;;;;;3.47;1.88;;;30.90;73.50;;;;;;5058180;28;20119;-64
2023/06/25 09:41:17;;;;;;;3.58;1.50;;;30.90;72.70;;;;;;5064978;28;20052;-64
2023/06/25 09:43:45;;;;;;;4.30;1.50;;;31.00;72.70;;;;;;5074382;28;20044;-64
2023/06/25 09:46:12;;;;;;;3.42;1.40;;;31.00;71.50;;;;;;5074048;28;20056;-65
2023/06/25 09:48:41;;;;;;;2.08;1.10;;;31.00;71.10;;;;;;5056853;28;20040;-64
2023/06/25 09:51:08;;;;;;;4.40;1.50;;;31.10;71.00;;;;;;5075163;28;20032;-63
2023/06/25 09:53:37;;;;;;;4.10;1.73;;;31.20;69.80;;;;;;5075087;28;20181;-64
2023/06/25 09:56:06;;;;;;;4.28;1.35;;;31.10;68.90;;;;;;5056797;28;20074;-63
2023/06/25 09:58:32;;;;;;;2.88;1.50;;;31.10;68.40;;;;;;5075034;28;20036;-65
2023/06/25 10:01:00;;;;;;;4.55;2.03;;;31.10;68.20;;;;;;5094032;28;20512;-63
2023/06/25 10:03:26;;;;;;;2.65;1.20;;;31.10;67.20;;;;;;5054598;28;20131;-64
2023/06/25 10:05:52;;;;;;;3.75;1.55;;;31.10;67.50;;;;;;5053923;28;20519;-64
2023/06/25 10:08:19;;;;;;;2.83;1.23;;;31.20;68.20;;;;;;5053868;28;20041;-64
2023/06/25 10:11:04;;;;;;;3.17;1.60;;;31.30;68.30;;;;;;5053471;28;20102;-64
2023/06/25 10:13:30;;;;;;;4.72;1.67;;;31.40;64.70;;;;;;5055580;28;20037;-64
2023/06/25 10:15:58;;;;;;;3.50;1.48;;;31.40;66.50;;;;;;5053396;28;20131;-64
2023/06/25 10:18:24;;;;;;;3.83;1.33;;;31.50;65.80;;;;;;5056651;28;20126;-64
2023/06/25 10:20:50;;;;;;;3.10;1.20;;;31.50;65.30;;;;;;5055143;28;20126;-64
2023/06/25 10:23:22;;;;;;;3.60;1.30;;;31.60;65.60;;;;;;5053340;28;20512;-63
2023/06/25 10:25:59;;;;;;;4.82;1.23;;;31.80;65.50;;;;;;5050380;28;20288;-64
2023/06/25 10:28:34;;;;;;;3.72;1.73;;;31.80;63.80;;;;;;5050608;28;20049;-65
2023/06/25 10:31:14;;;;;;;3.65;1.33;;;31.90;63.20;;;;;;5050098;28;20132;-65
2023/06/25 10:33:40;;;;;;;3.72;1.27;;;31.90;62.80;;;;;;5044566;28;20063;-65
2023/06/25 10:36:10;;;;;;;3.10;1.35;;;31.90;63.60;;;;;;5070353;28;20489;-64
2023/06/25 10:38:37;;;;;;;3.45;1.58;;;31.80;63.50;;;;;;5071143;28;20066;-64
2023/06/25 10:41:03;;;;;;;1.67;1.08;;;31.80;63.10;;;;;;5071419;28;20119;-63
2023/06/25 10:43:29;;;;;;;4.78;1.52;;;32.00;64.70;;;;;;5069708;28;20155;-65
2023/06/25 10:45:56;;;;;;;4.10;1.20;;;32.30;65.30;;;;;;5059410;28;20124;-65
2023/06/25 10:48:24;;;;;;;4.72;1.80;;;32.50;62.60;;;;;;5049975;28;20051;-65
2023/06/25 10:50:54;;;;;;;5.32;1.25;;;32.30;61.60;;;;;;5049775;28;20390;-64
2023/06/25 10:53:22;;;;;;;2.80;1.20;;;32.20;61.80;;;;;;5033227;28;20052;-64
2023/06/25 10:55:50;;;;;;;4.63;1.43;;;32.20;62.70;;;;;;5049896;28;20049;-63
2023/06/25 10:58:20;;;;;;;3.03;1.00;;;32.30;63.40;;;;;;5050725;28;20132;-64
2023/06/25 11:00:55;;;;;;;2.10;1.10;;;32.40;61.70;;;;;;5087562;28;20108;-65
2023/06/25 11:03:22;;;;;;;3.22;1.30;;;32.40;60.70;;;;;;5090528;28;20048;-64
2023/06/25 11:05:48;;;;;;;4.25;1.60;;;32.30;61.30;;;;;;5089633;28;20511;-64
2023/06/25 11:08:15;;;;;;;5.68;1.85;;;32.30;60.40;;;;;;5090078;28;20048;-65
2023/06/25 11:10:42;;;;;;;2.80;1.40;;;32.30;59.10;;;;;;5088075;28;20042;-63
2023/06/25 11:13:14;;;;;;;3.63;1.15;;;32.10;59.60;;;;;;5049615;28;20041;-65
2023/06/25 11:15:40;;;;;;;2.53;1.10;;;32.10;59.60;;;;;;5049595;28;20044;-64
2023/06/25 11:18:08;;;;;;;3.40;1.45;;;32.20;59.90;;;;;;5033160;28;20041;-64
2023/06/25 11:20:34;;;;;;;;;;;32.30;59.80;;;;;;5049758;28;20082;-65
2023/06/25 11:23:04;;;;;;;4.40;1.40;;;32.40;59.10;;;;;;5065073;28;20009;-65
2023/06/25 11:25:30;;;;;;;1.77;0.95;;;32.30;59.60;;;;;;5070085;28;20523;-65
2023/06/25 11:28:07;;;;;;;3.47;1.40;;;32.30;58.80;;;;;;5069295;28;20578;-65
2023/06/25 11:30:33;;;;;;;2.45;1.10;;;32.20;57.80;;;;;;5068949;28;20051;-64
2023/06/25 11:33:13;;;;;;;2.58;1.33;;;32.30;59.20;;;;;;5069806;28;20028;-65
2023/06/25 11:35:40;;;;;;;2.90;1.05;;;32.40;57.00;;;;;;5069270;28;20043;-63
2023/06/25 11:38:06;;;;;;;1.85;0.90;;;32.40;57.90;;;;;;5068867;28;20144;-63
2023/06/25 11:40:34;;;;;;;1.70;0.73;;;32.40;57.50;;;;;;5069798;28;20086;-63
2023/06/25 11:43:00;;;;;;;1.95;1.13;;;32.60;58.40;;;;;;5052393;28;20076;-63
2023/06/25 11:45:26;;;;;;;2.20;1.17;;;32.80;59.10;;;;;;5052768;28;20144;-64
2023/06/25 11:47:53;;;;;;;1.95;1.15;;;32.90;58.20;;;;;;5068349;28;20049;-65
2023/06/25 11:50:24;;;;;;;2.13;1.35;;;32.90;56.60;;;;;;5068981;28;20048;-65
2023/06/25 11:52:53;;;;;;;2.08;0.90;;;32.80;57.20;;;;;;5068780;28;20080;-65
2023/06/25 11:55:21;;;;;;;1.88;0.93;;;33.00;58.10;;;;;;5068449;28;20102;-65
2023/06/25 11:57:50;;;;;;;1.55;0.90;;;33.10;58.00;;;;;;5069024;28;20048;-65
2023/06/25 12:00:17;;;;;;;3.22;1.15;;;33.10;57.90;;;;;;5084471;28;20044;-66
2023/06/25 12:02:43;;;;;;;2.03;0.90;;;33.10;57.90;;;;;;5088416;28;20036;-65
2023/06/25 12:05:09;;;;;;;1.20;0.70;;;33.10;58.00;;;;;;5088875;28;20520;-65
2023/06/25 12:07:37;;;;;;;2.17;1.15;;;33.10;58.00;;;;;;5088648;28;20144;-65
2023/06/25 12:10:03;;;;;;;2.55;1.13;;;33.00;57.80;;;;;;5072301;28;20059;-65
2023/06/25 12:12:30;;;;;;;2.08;1.20;;;32.80;57.60;;;;;;5090216;28;20032;-65
2023/06/25 12:14:55;;;;;;;2.45;1.27;;;32.70;57.90;;;;;;5088402;28;20122;-65
2023/06/25 12:17:21;;;;;;;3.47;1.48;;;32.70;58.30;;;;;;5089989;28;20563;-65
2023/06/25 12:19:47;;;;;;;3.08;1.33;;;32.70;58.60;;;;;;5090026;28;20108;-64
2023/06/25 12:22:13;;;;;;;2.65;1.33;;;32.70;59.00;;;;;;5087937;28;20044;-64
2023/06/25 12:24:39;;;;;;;1.65;1.02;;;32.80;58.30;;;;;;5050335;28;20045;-64
2023/06/25 12:27:05;;;;;;;2.28;1.10;;;32.70;57.50;;;;;;5066174;28;20040;-65
2023/06/25 12:29:31;;;;;;;2.47;1.33;;;32.50;57.20;;;;;;5067602;28;20124;-65
2023/06/25 12:31:58;;;;;;;3.25;1.48;;;32.30;57.40;;;;;;5069500;28;20400;-64
2023/06/25 12:34:23;;;;;;;2.97;1.60;;;32.20;57.80;;;;;;5068221;28;20051;-65
2023/06/25 12:36:49;;;;;;;3.15;1.77;;;32.10;57.00;;;;;;5067491;28;20036;-64
2023/06/25 12:39:15;;;;;;;2.75;1.52;;;31.90;56.60;;;;;;5068121;28;20048;-65
2023/06/25 12:41:41;;;;;;;3.10;1.75;;;31.60;57.00;;;;;;5068071;28;20048;-64
2023/06/25 12:44:07;;;;;;;2.15;0.93;;;31.50;57.30;;;;;;5069042;28;20036;-65
2023/06/25 12:46:33;;;;;;;3.58;1.33;;;31.50;57.30;;;;;;5068259;28;20374;-65